Terminal Aerodrome Forecast
Issued by NWS

Home | Current Version | Previous Version | Text Only | Print | Product List | Glossary On
Versions: 1 2 3 4 5 6 7 8 9 10 11 12 13 14 15 16 17 18
000
FTUS41 KILN 061700
TAFLUK
TAF
KLUK 061720Z 0618/0718 24006KT P6SM FEW040 SCT250
     FM070000 17003KT P6SM SCT250
     FM070400 00000KT 3SM BR SCT250
     FM071300 23011KT P6SM BKN040 OVC250
     FM071700 23011KT P6SM VCTS BKN035CB OVC250=

USA.gov is the U.S. government's official web portal to all federal, state and local government web resources and services.